This is the latest recevied weather packets stored in our database for station/object 9M4RBN-3. If no packets are shown the sender has not sent any weather packets the latest 10 day(s).
| Time | Temp. | Humidity | Pressure | Rain* | Wind** | Luminosity | Snow |
|---|---|---|---|---|---|---|---|
| 1778010701 | 28.33° C | 67% | 1013.3 hPa | - | - | - | - |
| 1778009801 | 28.33° C | 67% | 1013.4 hPa | - | - | - | - |
| 1778008904 | 28.33° C | 67% | 1013.6 hPa | - | - | - | - |
| 1778008001 | 28.33° C | 68% | 1013.6 hPa | - | - | - | - |
| 1778007101 | 28.33° C | 68% | 1013.7 hPa | - | - | - | - |
| 1778006201 | 27.78° C | 69% | 1013.8 hPa | - | - | - | - |
| 1778005304 | 27.78° C | 69% | 1013.9 hPa | - | - | - | - |
| 1778004401 | 27.22° C | 69% | 1014 hPa | - | - | - | - |
| 1778003501 | 27.22° C | 66% | 1014.3 hPa | - | - | - | - |
| 1778002601 | 26.67° C | 52% | 1014.4 hPa | - | - | - | - |
| 1778001701 | 27.22° C | 41% | 1014.5 hPa | - | - | - | - |
| 1778000801 | 28.33° C | 61% | 1014.7 hPa | - | - | - | - |
| 1777999900 | 27.78° C | 60% | 1014.8 hPa | - | - | - | - |
| 1777999000 | 27.22° C | 56% | 1014.9 hPa | - | - | - | - |
| 1777998100 | 26.67° C | 51% | 1014.8 hPa | - | - | - | - |
| 1777997200 | 25.56° C | 43% | 1015 hPa | - | - | - | - |
| 1777996300 | 26.11° C | 43% | 1015 hPa | - | - | - | - |
| 1777995400 | 26.11° C | 43% | 1014.8 hPa | - | - | - | - |
| 1777994500 | 26.11° C | 43% | 1014.8 hPa | - | - | - | - |
| 1777993600 | 26.11° C | 43% | 1014.6 hPa | - | - | - | - |
| 1777992700 | 26.67° C | 43% | 1014.5 hPa | - | - | - | - |
| 1777991801 | 26.67° C | 43% | 1014.3 hPa | - | - | - | - |
| 1777990901 | 26.67° C | 43% | 1014.2 hPa | - | - | - | - |
| 1777990001 | 26.67° C | 43% | 1014 hPa | - | - | - | - |
| 1777989103 | 26.67° C | 44% | 1013.9 hPa | - | - | - | - |
* Rain since midnight (hover to see other rain measurements)
** Current wind speed in m/s (hover to see current wind gust speed)